Time;durP1;ratioP1;P1;durP2;ratioP2;P2;SDS_P1;SDS_P2;PMS_P1;PMS_P2;Temp;Humidity;BMP_temperature;BMP_pressure;BME280_temperature;BME280_humidity;BME280_pressure;Samples;Min_cycle;Max_cycle;Signal;HPM_P1;HPM_P2
2023/05/01 00:01:17;;;;;;;5.32;2.47;;;;;;;10.61;83.43;101448.25;5007434;28;20030;-77
2023/05/01 00:03:43;;;;;;;5.13;2.40;;;;;;;10.56;83.20;101452.22;4984757;28;20050;-76
2023/05/01 00:06:09;;;;;;;4.70;2.00;;;;;;;10.49;83.77;101451.94;5007678;28;20052;-75
2023/05/01 00:08:34;;;;;;;4.28;2.40;;;;;;;10.44;83.97;101449.78;5006402;28;20553;-74
2023/05/01 00:11:04;;;;;;;5.85;2.50;;;;;;;10.41;84.01;101450.06;5008397;28;20048;-75
2023/05/01 00:13:30;;;;;;;5.55;2.47;;;;;;;10.36;83.98;101449.69;4985097;28;20041;-75
2023/05/01 00:15:56;;;;;;;6.50;2.55;;;;;;;10.35;84.17;101447.22;5000869;28;20034;-75
2023/05/01 00:18:21;;;;;;;5.30;2.53;;;;;;;10.30;84.15;101445.88;4985506;28;20061;-75
2023/05/01 00:20:47;;;;;;;4.85;2.30;;;;;;;10.24;84.31;101437.78;5004282;28;20041;-76
2023/05/01 00:23:12;;;;;;;6.50;2.58;;;;;;;10.10;84.56;101437.25;5001431;28;20455;-75
2023/05/01 00:25:38;;;;;;;6.70;2.60;;;;;;;9.97;84.62;101433.31;5000300;28;20037;-75
2023/05/01 00:28:05;;;;;;;7.45;2.70;;;;;;;9.88;85.48;101432.34;4993019;28;20034;-75
2023/05/01 00:30:34;;;;;;;6.78;2.70;;;;;;;9.80;85.93;101434.81;4988219;28;20037;-75
2023/05/01 00:33:00;;;;;;;6.30;3.58;;;;;;;9.72;86.32;101428.50;4985196;28;20034;-76
2023/05/01 00:35:26;;;;;;;4.82;2.35;;;;;;;9.63;86.55;101421.56;4991714;28;20121;-76
2023/05/01 00:37:52;;;;;;;5.57;2.55;;;;;;;9.54;87.25;101423.16;4997007;28;20041;-75
2023/05/01 00:40:17;;;;;;;3.83;2.50;;;;;;;9.47;87.58;101427.22;4984749;28;20034;-76
2023/05/01 00:42:43;;;;;;;5.03;2.70;;;;;;;9.43;87.76;101422.47;4985950;28;20089;-75
2023/05/01 00:45:09;;;;;;;10.23;2.70;;;;;;;9.45;87.97;101421.38;4988149;28;20053;-75
2023/05/01 00:47:35;;;;;;;6.47;2.88;;;;;;;9.42;88.26;101411.31;5000462;28;20068;-75
2023/05/01 00:50:02;;;;;;;5.03;3.00;;;;;;;9.38;88.38;101412.53;5001145;28;20435;-75
2023/05/01 00:52:28;;;;;;;5.18;2.50;;;;;;;9.34;88.71;101408.53;4989333;28;20084;-75
2023/05/01 00:54:53;;;;;;;5.05;2.72;;;;;;;9.34;88.56;101399.03;5003831;28;20050;-75
2023/05/01 00:57:20;;;;;;;6.43;2.60;;;;;;;9.35;88.79;101398.06;5001771;28;20636;-75
2023/05/01 00:59:47;;;;;;;4.82;2.50;;;;;;;9.37;88.91;101394.53;4989298;28;20045;-74
2023/05/01 01:02:13;;;;;;;5.45;2.63;;;;;;;9.37;89.04;101397.13;4972548;28;20412;-75
2023/05/01 01:04:41;;;;;;;6.68;2.72;;;;;;;9.36;89.32;101385.94;5004363;28;20049;-75
2023/05/01 01:07:09;;;;;;;4.70;2.72;;;;;;;9.36;89.09;101383.34;4994713;28;20095;-75
2023/05/01 01:09:40;;;;;;;9.27;2.92;;;;;;;9.35;89.12;101386.91;4988761;28;20038;-75
2023/05/01 01:12:44;;;;;;;5.88;3.03;;;;;;;9.32;89.39;101377.66;5003082;28;20455;-76
2023/05/01 01:15:22;;;;;;;7.57;3.63;;;;;;;9.24;89.35;101368.91;4926263;28;20035;-75
2023/05/01 01:18:26;;;;;;;7.47;2.70;;;;;;;9.12;89.61;101376.78;4957276;28;20050;-75
2023/05/01 01:21:11;;;;;;;5.45;2.90;;;;;;;8.99;90.25;101367.63;4987131;28;20133;-75
2023/05/01 01:24:05;;;;;;;6.07;2.60;;;;;;;8.89;90.78;101370.16;4996675;28;20057;-75
2023/05/01 01:26:43;;;;;;;3.63;2.38;;;;;;;8.83;91.34;101370.69;4998873;28;20041;-75
2023/05/01 01:29:08;;;;;;;8.40;4.07;;;;;;;8.82;91.62;101363.88;4981398;28;20121;-76
2023/05/01 01:31:55;;;;;;;6.72;2.97;;;;;;;8.85;91.52;101364.41;4984449;28;20124;-75
2023/05/01 01:34:46;;;;;;;6.20;2.88;;;;;;;8.88;91.66;101363.34;4998822;28;20029;-76
2023/05/01 01:37:21;;;;;;;5.50;3.08;;;;;;;8.89;91.56;101362.38;5000960;28;20037;-75
2023/05/01 01:40:01;;;;;;;6.20;3.22;;;;;;;8.91;91.69;101357.91;4994194;28;20193;-75
2023/05/01 01:42:37;;;;;;;8.18;3.33;;;;;;;8.89;91.75;101355.47;4999962;28;20048;-77
2023/05/01 01:45:14;;;;;;;5.90;2.92;;;;;;;8.83;91.92;101352.56;4981526;28;20046;-75
2023/05/01 01:47:41;;;;;;;5.95;3.50;;;;;;;8.71;92.37;101344.09;4988987;28;20022;-75
2023/05/01 01:50:10;;;;;;;5.90;3.10;;;;;;;8.63;92.58;101343.94;4985305;28;20041;-75
2023/05/01 01:52:39;;;;;;;6.40;3.45;;;;;;;8.56;93.09;101338.47;4985082;28;20030;-75
2023/05/01 01:55:09;;;;;;;6.72;3.22;;;;;;;8.53;93.12;101342.13;4986209;28;20040;-77
2023/05/01 01:57:41;;;;;;;9.75;3.38;;;;;;;8.53;93.33;101331.81;4986552;28;20255;-75
2023/05/01 02:00:09;;;;;;;7.60;3.70;;;;;;;8.53;93.75;101330.97;4988104;28;20045;-75
2023/05/01 02:02:39;;;;;;;9.05;3.58;;;;;;;8.53;93.95;101326.63;4987438;28;20062;-75
2023/05/01 02:05:13;;;;;;;10.23;3.72;;;;;;;8.55;94.13;101329.06;4986838;28;20486;-75
2023/05/01 02:07:40;;;;;;;11.77;4.10;;;;;;;8.56;93.84;101321.19;5002153;28;20030;-74
2023/05/01 02:10:12;;;;;;;10.13;3.60;;;;;;;8.55;93.91;101326.47;4985604;28;20050;-74
2023/05/01 02:12:40;;;;;;;6.35;3.50;;;;;;;8.51;94.06;101322.50;4999250;28;20033;-74
2023/05/01 02:15:08;;;;;;;5.45;3.50;;;;;;;8.46;94.07;101317.75;5000134;28;20049;-75
2023/05/01 02:17:38;;;;;;;8.10;3.67;;;;;;;8.44;94.39;101314.47;5000456;28;20022;-74
2023/05/01 02:20:06;;;;;;;6.55;3.42;;;;;;;8.44;94.80;101314.47;4984396;28;20172;-77
2023/05/01 02:22:32;;;;;;;7.55;3.85;;;;;;;8.45;94.60;101310.13;4988783;28;20025;-75
2023/05/01 02:24:59;;;;;;;5.90;3.60;;;;;;;8.44;94.54;101305.88;4986482;28;20049;-75
2023/05/01 02:27:31;;;;;;;8.90;3.63;;;;;;;8.39;94.57;101304.47;4985628;28;20217;-76
2023/05/01 02:29:56;;;;;;;8.52;4.05;;;;;;;8.35;94.89;101302.28;4995382;28;20133;-74
2023/05/01 02:32:22;;;;;;;8.20;3.40;;;;;;;8.26;94.84;101296.13;4968986;28;20041;-75
2023/05/01 02:34:48;;;;;;;7.53;3.58;;;;;;;8.22;95.41;101291.34;5000123;28;20073;-75
2023/05/01 02:37:14;;;;;;;10.75;4.25;;;;;;;8.18;95.37;101293.38;4995866;28;20041;-75
2023/05/01 02:39:42;;;;;;;9.07;3.90;;;;;;;8.19;95.28;101295.00;4983677;28;20041;-75
2023/05/01 02:42:10;;;;;;;6.93;3.90;;;;;;;8.15;95.75;101289.25;4983359;28;20487;-75
2023/05/01 02:44:58;;;;;;;7.95;3.80;;;;;;;8.17;95.54;101279.66;4997940;28;20104;-75
2023/05/01 02:47:26;;;;;;;8.50;4.60;;;;;;;8.19;95.50;101279.50;5020414;23;20044;-75
2023/05/01 02:49:53;;;;;;;6.50;4.32;;;;;;;8.23;95.30;101269.72;5020244;28;20045;-77
2023/05/01 02:52:21;;;;;;;6.10;4.07;;;;;;;8.22;95.12;101268.91;5026191;28;20060;-74
2023/05/01 02:54:50;;;;;;;10.50;4.07;;;;;;;8.21;95.17;101259.50;5025625;28;20553;-75
2023/05/01 02:57:17;;;;;;;11.25;4.22;;;;;;;8.22;94.93;101265.53;5031631;28;20037;-74
2023/05/01 02:59:43;;;;;;;9.25;4.25;;;;;;;8.25;95.16;101265.25;5030528;28;20403;-75
2023/05/01 03:02:08;;;;;;;6.40;3.78;;;;;;;8.24;95.15;101263.63;5044782;28;20037;-75
2023/05/01 03:04:34;;;;;;;6.22;3.88;;;;;;;8.24;94.94;101256.69;5032275;28;20449;-74
2023/05/01 03:07:00;;;;;;;6.65;3.33;;;;;;;8.25;94.60;101255.75;5028358;28;20068;-75
2023/05/01 03:09:25;;;;;;;8.93;3.78;;;;;;;8.25;94.73;101254.91;5029000;28;20049;-75
2023/05/01 03:11:51;;;;;;;6.53;3.53;;;;;;;8.25;94.42;101255.75;5041769;28;20431;-76
2023/05/01 03:14:16;;;;;;;6.60;3.50;;;;;;;8.26;93.78;101252.19;5040939;28;20044;-75
2023/05/01 03:16:43;;;;;;;11.05;4.55;;;;;;;8.32;93.33;101240.53;5046621;28;20037;-74
2023/05/01 03:19:09;;;;;;;7.63;3.75;;;;;;;8.34;92.38;101242.06;5025611;28;20402;-75
2023/05/01 03:21:35;;;;;;;8.40;3.20;;;;;;;8.33;92.13;101237.81;5042954;28;20633;-75
2023/05/01 03:24:02;;;;;;;5.40;3.35;;;;;;;8.29;92.35;101235.63;5024602;28;20040;-75
2023/05/01 03:26:29;;;;;;;8.93;3.75;;;;;;;8.30;92.08;101232.91;5012773;28;20028;-76
2023/05/01 03:28:54;;;;;;;7.70;3.17;;;;;;;8.28;92.32;101234.00;5026847;28;20601;-74
2023/05/01 03:31:20;;;;;;;8.07;3.83;;;;;;;8.24;92.73;101230.03;5028557;28;20095;-74
2023/05/01 03:33:46;;;;;;;11.27;3.90;;;;;;;8.19;93.00;101230.41;5026951;28;20079;-76
2023/05/01 03:36:15;;;;;;;5.32;3.38;;;;;;;8.16;93.41;101228.09;5028316;28;20021;-75
2023/05/01 03:38:42;;;;;;;6.13;3.20;;;;;;;8.15;93.40;101216.94;5025677;28;20125;-75
2023/05/01 03:41:07;;;;;;;8.55;3.17;;;;;;;8.16;93.61;101228.91;5047335;28;20698;-76
2023/05/01 03:43:51;;;;;;;6.53;3.55;;;;;;;8.16;93.52;101225.53;5047664;28;20093;-76
2023/05/01 03:46:28;;;;;;;3.95;2.92;;;;;;;8.13;93.77;101218.84;5030453;28;20025;-75
2023/05/01 03:48:54;;;;;;;6.40;3.25;;;;;;;8.13;94.03;101210.28;5042388;28;20052;-75
2023/05/01 03:51:19;;;;;;;9.63;3.33;;;;;;;8.10;94.21;101211.34;5029343;28;20037;-77
2023/05/01 03:53:46;;;;;;;6.25;2.80;;;;;;;8.10;94.41;101208.78;5012925;28;20059;-75
2023/05/01 03:56:12;;;;;;;4.93;2.97;;;;;;;8.09;94.23;101209.72;5025894;28;20074;-76
2023/05/01 03:58:38;;;;;;;7.30;3.38;;;;;;;8.10;94.21;101218.28;5046814;28;20052;-75
2023/05/01 04:01:04;;;;;;;5.43;3.50;;;;;;;8.09;94.31;101217.47;5043527;28;20037;-75
2023/05/01 04:03:30;;;;;;;6.82;2.95;;;;;;;8.09;94.67;101208.91;5043390;28;20033;-75
2023/05/01 04:05:56;;;;;;;12.52;3.45;;;;;;;8.13;94.43;101207.69;5009618;28;20095;-74
2023/05/01 04:08:21;;;;;;;8.20;3.30;;;;;;;8.09;94.22;101204.53;5030200;28;20635;-76
2023/05/01 04:10:47;;;;;;;8.52;3.50;;;;;;;8.09;94.30;101203.72;5045215;28;20111;-76
2023/05/01 04:13:12;;;;;;;4.82;3.13;;;;;;;8.07;94.22;101210.78;5046464;28;20045;-74
2023/05/01 04:15:38;;;;;;;4.75;3.33;;;;;;;8.03;94.15;101201.69;5026217;28;20079;-74
2023/05/01 04:18:04;;;;;;;7.35;3.35;;;;;;;8.01;94.50;101201.81;5040392;28;20111;-74
2023/05/01 04:20:30;;;;;;;6.25;3.83;;;;;;;8.02;94.79;101197.44;5027209;28;20403;-74
2023/05/01 04:22:55;;;;;;;8.13;3.88;;;;;;;8.02;94.73;101200.03;5045604;28;20031;-76
2023/05/01 04:25:22;;;;;;;6.47;3.53;;;;;;;8.02;94.79;101202.59;5024011;28;20032;-75
2023/05/01 04:27:50;;;;;;;7.60;3.67;;;;;;;8.02;95.24;101207.78;5026248;28;20167;-75
2023/05/01 04:30:16;;;;;;;6.30;3.47;;;;;;;8.01;95.55;101204.38;5025969;28;20028;-74
2023/05/01 04:32:42;;;;;;;9.32;3.95;;;;;;;8.04;95.30;101196.34;5029549;28;20025;-77
2023/05/01 04:35:08;;;;;;;5.53;3.55;;;;;;;8.11;94.73;101202.66;5011956;28;20033;-75
2023/05/01 04:37:34;;;;;;;7.68;3.50;;;;;;;8.29;93.57;101192.53;5045502;28;20502;-74
2023/05/01 04:40:00;;;;;;;7.53;3.63;;;;;;;8.22;93.15;101194.00;5026857;28;20064;-75
2023/05/01 04:42:32;;;;;;;7.00;4.35;;;;;;;8.28;93.50;101198.63;5029213;28;20098;-74
2023/05/01 04:45:01;;;;;;;5.60;3.17;;;;;;;8.27;93.27;101199.59;5023826;28;20053;-75
2023/05/01 04:47:27;;;;;;;9.25;3.88;;;;;;;8.33;92.83;101193.91;5028568;28;20079;-75
2023/05/01 04:49:53;;;;;;;6.53;3.70;;;;;;;8.37;92.81;101197.03;5024033;28;20029;-75
2023/05/01 04:52:18;;;;;;;10.90;4.25;;;;;;;8.36;92.92;101195.38;5010055;28;20505;-75
2023/05/01 04:54:50;;;;;;;5.15;3.30;;;;;;;8.38;92.95;101196.06;5025647;28;20037;-75
2023/05/01 04:57:16;;;;;;;7.18;3.70;;;;;;;8.39;92.94;101185.59;5025950;28;20856;-75
2023/05/01 04:59:42;;;;;;;6.63;3.17;;;;;;;8.46;93.34;101190.28;5012390;28;20049;-75
2023/05/01 05:02:09;;;;;;;7.03;3.80;;;;;;;8.46;93.43;101192.88;5026417;28;20029;-75
2023/05/01 05:04:34;;;;;;;8.95;3.25;;;;;;;8.49;94.28;101184.84;5043935;28;20041;-75
2023/05/01 05:07:01;;;;;;;12.68;4.45;;;;;;;8.59;93.94;101193.44;5026109;28;20033;-74
2023/05/01 05:09:44;;;;;;;6.18;3.50;;;;;;;8.79;92.62;101193.47;5007388;28;20132;-74
2023/05/01 05:12:09;;;;;;;8.35;4.15;;;;;;;8.84;92.01;101194.69;5012674;28;20029;-74
2023/05/01 05:14:35;;;;;;;11.07;3.53;;;;;;;8.98;91.51;101192.66;5040387;28;20874;-74
2023/05/01 05:17:01;;;;;;;5.40;3.55;;;;;;;9.09;91.15;101187.34;5009922;28;20054;-78
2023/05/01 05:19:26;;;;;;;7.88;3.88;;;;;;;9.18;90.19;101193.50;5009881;28;20045;-74
2023/05/01 05:21:52;;;;;;;9.55;3.67;;;;;;;9.39;89.47;101190.75;5029851;28;20402;-76
2023/05/01 05:24:17;;;;;;;7.60;3.75;;;;;;;9.48;88.85;101188.13;5023446;28;20045;-75
2023/05/01 05:26:43;;;;;;;5.93;3.50;;;;;;;9.57;87.13;101189.09;5012598;28;20037;-75
2023/05/01 05:29:09;;;;;;;10.75;4.15;;;;;;;9.63;86.57;101191.09;5024312;28;20045;-75
2023/05/01 05:31:34;;;;;;;6.70;3.13;;;;;;;9.80;85.40;101197.31;5026212;28;20058;-75
2023/05/01 05:34:00;;;;;;;6.30;3.47;;;;;;;9.91;84.97;101189.38;5024952;28;20037;-75
2023/05/01 05:36:27;;;;;;;6.63;3.60;;;;;;;10.19;83.65;101189.41;5024929;28;20044;-75
2023/05/01 05:38:53;;;;;;;8.27;3.88;;;;;;;10.28;81.77;101188.56;5005054;28;20120;-75
2023/05/01 05:41:19;;;;;;;6.47;3.22;;;;;;;10.41;82.29;101188.22;5043871;28;20032;-75
2023/05/01 05:43:46;;;;;;;7.72;3.03;;;;;;;10.48;81.67;101180.69;5026910;28;20052;-74
2023/05/01 05:46:11;;;;;;;7.72;3.35;;;;;;;10.54;81.21;101185.28;5028681;28;20037;-73
2023/05/01 05:48:38;;;;;;;7.55;3.38;;;;;;;10.62;79.93;101177.56;5028464;28;20043;-76
2023/05/01 05:51:04;;;;;;;4.10;3.13;;;;;;;10.66;80.57;101184.13;5026774;28;20032;-75
2023/05/01 05:53:31;;;;;;;7.70;3.80;;;;;;;10.75;80.53;101186.78;5042176;28;20414;-75
2023/05/01 05:55:57;;;;;;;8.45;3.30;;;;;;;10.74;80.30;101185.13;5008773;28;20590;-74
2023/05/01 05:58:23;;;;;;;4.32;3.10;;;;;;;10.73;80.16;101189.50;5026219;28;20041;-74
2023/05/01 06:00:51;;;;;;;5.47;3.30;;;;;;;10.85;78.44;101188.34;5026212;28;20028;-74
2023/05/01 06:03:18;;;;;;;8.02;2.80;;;;;;;10.83;78.97;101190.28;5042683;28;20590;-74
2023/05/01 06:05:44;;;;;;;5.95;3.03;;;;;;;10.86;78.70;101189.16;5046020;28;20037;-75
2023/05/01 06:08:10;;;;;;;8.15;3.42;;;;;;;10.95;78.49;101185.69;5028216;28;20060;-75
2023/05/01 06:10:38;;;;;;;5.22;3.47;;;;;;;10.89;79.12;101194.88;5024769;28;20116;-75
2023/05/01 06:13:07;;;;;;;5.60;3.53;;;;;;;10.94;79.43;101201.38;5039955;28;20045;-75
2023/05/01 06:15:34;;;;;;;9.75;3.63;;;;;;;10.87;80.36;101193.41;5026607;28;20021;-74
2023/05/01 06:17:59;;;;;;;11.30;3.40;;;;;;;10.88;78.91;101195.81;5024623;28;20031;-75
2023/05/01 06:20:25;;;;;;;6.57;3.30;;;;;;;10.94;79.66;101204.78;5011074;28;20310;-74
2023/05/01 06:22:51;;;;;;;5.00;2.90;;;;;;;11.08;77.80;101191.31;5023961;28;20037;-74
2023/05/01 06:25:25;;;;;;;6.78;3.28;;;;;;;11.08;78.62;101198.28;5039165;28;20557;-75
2023/05/01 06:27:51;;;;;;;7.60;3.28;;;;;;;11.29;78.63;101187.56;5042517;28;20082;-75
2023/05/01 06:30:20;;;;;;;6.63;3.38;;;;;;;11.39;77.79;101187.47;5009602;28;20033;-75
2023/05/01 06:32:45;;;;;;;4.57;3.08;;;;;;;11.40;78.75;101189.91;5021634;28;20044;-74
2023/05/01 06:35:13;;;;;;;6.30;3.42;;;;;;;11.32;78.45;101189.03;5009163;28;20041;-75
2023/05/01 06:37:38;;;;;;;8.52;3.88;;;;;;;11.35;78.07;101183.56;5040778;28;20098;-74
2023/05/01 06:40:07;;;;;;;6.57;3.47;;;;;;;11.55;77.42;101179.81;5006056;28;20110;-74
2023/05/01 06:42:33;;;;;;;8.80;3.53;;;;;;;11.65;75.52;101172.69;5043539;28;20025;-74
2023/05/01 06:45:00;;;;;;;6.88;3.80;;;;;;;11.72;75.75;101180.72;5035602;28;20117;-74
2023/05/01 06:47:26;;;;;;;7.53;4.03;;;;;;;11.78;75.95;101174.09;5041349;28;20025;-75
2023/05/01 06:49:52;;;;;;;6.82;3.70;;;;;;;11.85;75.65;101180.28;5024349;28;20052;-74
2023/05/01 06:52:17;;;;;;;4.70;3.50;;;;;;;11.82;75.51;101171.00;5025943;28;20032;-74
2023/05/01 06:54:43;;;;;;;6.13;3.60;;;;;;;11.93;76.26;101176.94;5025366;28;20044;-75
2023/05/01 06:57:08;;;;;;;9.25;3.95;;;;;;;11.93;75.49;101172.56;5027894;28;20040;-76
2023/05/01 06:59:34;;;;;;;7.45;3.33;;;;;;;12.02;75.34;101176.03;5037213;28;20049;-75
2023/05/01 07:01:59;;;;;;;8.20;4.05;;;;;;;11.97;75.38;101180.84;5041643;28;20033;-75
2023/05/01 07:04:25;;;;;;;11.13;3.70;;;;;;;12.00;74.92;101181.38;5023117;28;20025;-75
2023/05/01 07:06:50;;;;;;;6.50;3.90;;;;;;;12.12;75.02;101183.69;5024664;28;22157;-74
2023/05/01 07:09:16;;;;;;;8.55;4.63;;;;;;;12.05;75.61;101180.88;5024928;28;20080;-75
2023/05/01 07:11:41;;;;;;;8.18;3.65;;;;;;;12.14;75.23;101184.34;5044412;28;20112;-75
2023/05/01 07:14:07;;;;;;;5.60;3.55;;;;;;;12.21;75.02;101186.16;5040071;28;20075;-74
2023/05/01 07:16:33;;;;;;;8.85;3.90;;;;;;;12.32;74.42;101187.66;5043564;28;20395;-75
2023/05/01 07:18:58;;;;;;;7.85;3.75;;;;;;;12.44;74.44;101186.38;5043984;28;20053;-75
2023/05/01 07:21:24;;;;;;;6.63;3.33;;;;;;;12.57;74.18;101180.72;5026461;28;20801;-75
2023/05/01 07:23:49;;;;;;;11.38;3.83;;;;;;;12.79;72.92;101178.47;5009709;28;20053;-75
2023/05/01 07:26:15;;;;;;;6.85;3.28;;;;;;;12.75;72.13;101182.38;5023907;28;20056;-76
2023/05/01 07:28:41;;;;;;;5.80;3.63;;;;;;;12.94;70.65;101179.47;5011501;28;20040;-74
2023/05/01 07:31:09;;;;;;;7.45;4.35;;;;;;;12.93;70.64;101182.25;5025871;28;20394;-74
2023/05/01 07:33:34;;;;;;;9.30;3.97;;;;;;;12.95;70.35;101178.47;5041170;28;20056;-75
2023/05/01 07:36:00;;;;;;;8.52;3.70;;;;;;;13.07;70.06;101172.97;5012345;28;20025;-74
2023/05/01 07:38:25;;;;;;;8.18;3.80;;;;;;;13.34;69.57;101180.47;5041438;28;20544;-74
2023/05/01 07:40:52;;;;;;;7.63;3.60;;;;;;;13.44;70.11;101175.88;5045397;28;20298;-75
2023/05/01 07:43:18;;;;;;;6.03;3.90;;;;;;;13.48;71.16;101173.75;5030988;28;20107;-75
2023/05/01 07:45:54;;;;;;;8.77;3.83;;;;;;;13.59;69.08;101170.81;5026110;28;20403;-76
2023/05/01 07:48:20;;;;;;;4.78;3.10;;;;;;;13.79;68.86;101173.03;5046647;28;20406;-75
2023/05/01 07:50:45;;;;;;;5.13;3.03;;;;;;;13.87;68.21;101180.03;5028214;28;20039;-74
2023/05/01 07:53:11;;;;;;;6.18;3.25;;;;;;;14.01;67.42;101164.50;5030170;28;20044;-74
2023/05/01 07:55:37;;;;;;;8.50;3.80;;;;;;;14.07;67.73;101173.44;5046940;28;20423;-74
2023/05/01 07:58:02;;;;;;;4.88;3.58;;;;;;;14.33;66.07;101169.69;5028006;28;20033;-73
2023/05/01 08:00:28;;;;;;;5.93;3.38;;;;;;;14.54;65.39;101164.69;5044305;28;20064;-75
2023/05/01 08:02:53;;;;;;;8.57;3.70;;;;;;;14.91;63.59;101170.16;5049878;28;20166;-74
2023/05/01 08:05:19;;;;;;;5.88;3.15;;;;;;;15.35;62.79;101167.66;5026451;28;20047;-74
2023/05/01 08:07:44;;;;;;;6.18;3.80;;;;;;;15.79;61.61;101166.09;5009892;28;20139;-74
2023/05/01 08:10:10;;;;;;;6.38;3.78;;;;;;;15.85;60.81;101167.97;5026542;28;20372;-75
2023/05/01 08:12:35;;;;;;;7.78;3.65;;;;;;;15.93;60.20;101164.44;5043310;28;20215;-75
2023/05/01 08:15:01;;;;;;;6.43;3.45;;;;;;;16.07;58.48;101174.06;5026581;28;20564;-74
2023/05/01 08:17:26;;;;;;;8.63;3.63;;;;;;;16.07;60.32;101162.81;5029730;28;20036;-75
2023/05/01 08:19:55;;;;;;;6.60;3.45;;;;;;;16.08;59.44;101165.22;5043591;28;20053;-75
2023/05/01 08:22:22;;;;;;;5.70;3.33;;;;;;;16.13;58.99;101173.34;5044960;28;20044;-75
2023/05/01 08:24:48;;;;;;;6.43;3.08;;;;;;;16.18;59.00;101170.19;5037963;28;20061;-75
2023/05/01 08:27:13;;;;;;;8.40;4.03;;;;;;;16.29;58.41;101167.09;5024342;28;20490;-75
2023/05/01 08:29:39;;;;;;;6.65;3.05;;;;;;;16.43;57.84;101157.56;5040291;28;20052;-75
2023/05/01 08:32:04;;;;;;;7.38;3.08;;;;;;;16.71;57.63;101151.59;5045769;28;20029;-75
2023/05/01 08:34:30;;;;;;;6.85;3.80;;;;;;;16.74;59.13;101154.66;5022338;28;20041;-74
2023/05/01 08:36:56;;;;;;;7.28;3.67;;;;;;;16.56;57.03;101151.66;5040037;28;20048;-75
2023/05/01 08:39:21;;;;;;;7.70;3.30;;;;;;;16.57;57.14;101152.47;5040720;28;20504;-75
2023/05/01 08:41:47;;;;;;;12.43;3.03;;;;;;;16.50;58.07;101155.00;5032678;28;20087;-75
2023/05/01 08:44:15;;;;;;;7.30;2.78;;;;;;;16.49;58.37;101153.41;5029719;28;20053;-74
2023/05/01 08:47:00;;;;;;;6.28;3.00;;;;;;;16.73;56.48;101155.63;5033300;28;20123;-75
2023/05/01 08:49:27;;;;;;;8.13;4.32;;;;;;;16.88;57.42;101152.97;5038370;23;20049;-68
2023/05/01 08:51:55;;;;;;;7.05;3.10;;;;;;;17.44;57.49;101153.97;4982554;28;20103;-69
2023/05/01 08:54:22;;;;;;;7.85;4.78;;;;;;;18.02;55.05;101151.84;4988039;28;20039;-69
2023/05/01 08:56:50;;;;;;;6.22;3.20;;;;;;;18.33;51.96;101140.03;4988147;28;20419;-69
2023/05/01 08:59:18;;;;;;;6.68;3.03;;;;;;;18.40;51.42;101138.25;4979272;28;20104;-68
2023/05/01 09:01:45;;;;;;;7.72;3.42;;;;;;;18.45;53.43;101146.31;5000286;28;20412;-69
2023/05/01 09:04:12;;;;;;;6.78;3.53;;;;;;;18.51;54.43;101139.44;4982969;28;20054;-69
2023/05/01 09:06:37;;;;;;;6.40;3.50;;;;;;;18.42;53.36;101138.84;4984075;28;23042;-68
2023/05/01 09:09:03;;;;;;;3.63;2.72;;;;;;;18.51;54.28;101136.81;4984548;28;20053;-69
2023/05/01 09:11:29;;;;;;;4.47;3.00;;;;;;;18.68;51.96;101138.06;4966463;28;20038;-69
2023/05/01 09:13:55;;;;;;;7.43;2.97;;;;;;;18.52;50.90;101137.66;4981876;28;20077;-68
2023/05/01 09:16:21;;;;;;;5.72;2.78;;;;;;;18.49;53.39;101134.38;4982394;28;20026;-68
2023/05/01 09:18:47;;;;;;;5.45;3.15;;;;;;;18.63;53.00;101134.44;4988574;28;20056;-68
2023/05/01 09:21:13;;;;;;;7.15;3.72;;;;;;;18.79;54.14;101136.63;4977553;28;20053;-68
2023/05/01 09:23:39;;;;;;;7.90;2.78;;;;;;;19.05;52.09;101132.41;4998070;28;20057;-69
2023/05/01 09:26:06;;;;;;;5.85;2.95;;;;;;;19.03;51.10;101135.25;4999033;28;20051;-69
2023/05/01 09:28:43;;;;;;;5.75;2.80;;;;;;;18.93;52.74;101134.03;4996214;28;20116;-68
2023/05/01 09:31:27;;;;;;;6.15;3.92;;;;;;;18.95;50.77;101134.63;4986259;28;20064;-69
2023/05/01 09:34:03;;;;;;;5.07;3.13;;;;;;;19.54;51.15;101132.94;4996209;28;20050;-69
2023/05/01 09:36:31;;;;;;;10.18;3.40;;;;;;;19.64;48.64;101133.28;4981516;28;20128;-68
2023/05/01 09:38:59;;;;;;;5.78;3.00;;;;;;;19.68;49.94;101129.22;4983627;28;20053;-68
2023/05/01 09:41:25;;;;;;;4.68;2.50;;;;;;;19.80;49.61;101132.06;4999125;28;20041;-69
2023/05/01 09:43:51;;;;;;;4.68;2.70;;;;;;;20.03;49.39;101131.53;5004905;28;20042;-68
2023/05/01 09:46:17;;;;;;;2.85;2.05;;;;;;;20.15;49.14;101127.19;5000367;28;20062;-69
2023/05/01 09:49:02;;;;;;;3.58;1.90;;;;;;;20.49;49.91;101129.63;4995772;28;20467;-69
2023/05/01 09:51:32;;;;;;;3.38;1.58;;;;;;;20.69;48.11;101124.25;4966575;28;20672;-69
2023/05/01 09:54:03;;;;;;;3.30;2.05;;;;;;;20.70;47.57;101124.03;5000681;28;20132;-69
2023/05/01 09:56:31;;;;;;;4.78;2.15;;;;;;;21.10;46.78;101118.41;5000775;28;20029;-69
2023/05/01 09:59:13;;;;;;;3.42;2.13;;;;;;;21.32;45.25;101120.59;4980284;28;20056;-68
2023/05/01 10:01:40;;;;;;;2.30;1.70;;;;;;;21.41;44.47;101111.38;4997428;28;20106;-69
2023/05/01 10:04:06;;;;;;;5.15;2.85;;;;;;;21.12;45.25;101120.81;4966831;28;20046;-69
2023/05/01 10:06:31;;;;;;;6.22;2.30;;;;;;;21.19;46.54;101116.28;4981814;28;20484;-69
2023/05/01 10:08:57;;;;;;;5.70;2.20;;;;;;;21.24;45.16;101118.25;4978950;28;20053;-69
2023/05/01 10:11:22;;;;;;;7.00;2.67;;;;;;;20.97;46.75;101118.53;4980304;28;20472;-69
2023/05/01 10:14:22;;;;;;;3.08;2.42;;;;;;;20.75;45.76;101116.28;5000118;28;20488;-68
2023/05/01 10:16:48;;;;;;;4.57;2.75;;;;;;;20.59;46.34;101112.34;4970777;28;20054;-69
2023/05/01 10:19:15;;;;;;;4.13;2.10;;;;;;;20.78;47.70;101122.97;4976718;28;20042;-69
2023/05/01 10:21:41;;;;;;;6.93;2.10;;;;;;;20.97;49.00;101113.25;4979781;28;20051;-71
2023/05/01 10:24:08;;;;;;;3.35;2.03;;;;;;;21.35;48.18;101114.91;4975736;28;20515;-71
2023/05/01 10:26:35;;;;;;;6.75;2.10;;;;;;;21.42;48.13;101114.81;4981593;28;20543;-70
2023/05/01 10:29:02;;;;;;;5.47;2.20;;;;;;;21.55;47.39;101117.34;4963743;28;20045;-71
2023/05/01 10:31:28;;;;;;;3.67;2.25;;;;;;;21.84;48.61;101109.69;4984895;28;20034;-70
2023/05/01 10:33:55;;;;;;;5.22;2.50;;;;;;;21.81;45.79;101100.34;4964424;28;20046;-70
2023/05/01 10:36:35;;;;;;;4.30;2.30;;;;;;;21.70;46.40;101106.38;4980050;28;20039;-70
2023/05/01 10:39:00;;;;;;;4.60;2.20;;;;;;;21.70;47.67;101109.03;4981154;28;20071;-70
2023/05/01 10:41:57;;;;;;;5.47;2.85;;;;;;;21.53;46.96;101104.38;4965400;28;20102;-70
2023/05/01 10:44:25;;;;;;;4.75;2.55;;;;;;;21.71;46.55;101095.63;4978659;28;20046;-70
2023/05/01 10:46:50;;;;;;;5.63;2.63;;;;;;;21.78;46.57;101101.63;4960813;28;20053;-70
2023/05/01 10:49:17;;;;;;;3.63;2.28;;;;;;;21.45;44.85;101106.50;4994702;28;20050;-70
2023/05/01 10:52:00;;;;;;;8.32;2.20;;;;;;;21.38;45.50;101103.91;4985083;28;20088;-70
2023/05/01 10:54:27;;;;;;;4.75;2.67;;;;;;;21.02;46.36;101100.25;4994789;28;20125;-70
2023/05/01 10:56:55;;;;;;;3.03;2.20;;;;;;;21.02;46.93;101097.59;4979376;28;20479;-70
2023/05/01 10:59:20;;;;;;;6.70;2.80;;;;;;;21.12;47.54;101103.16;4965125;28;20062;-70
2023/05/01 11:01:48;;;;;;;6.13;2.97;;;;;;;21.09;47.57;101095.69;4980599;28;20108;-70
2023/05/01 11:04:26;;;;;;;8.68;2.60;;;;;;;20.96;47.88;101101.91;4981267;28;20039;-70
2023/05/01 11:07:00;;;;;;;2.72;2.50;;;;;;;20.86;47.71;101095.53;4996214;28;20040;-70
2023/05/01 11:09:40;;;;;;;7.07;3.03;;;;;;;20.83;47.73;101091.47;4980509;28;20384;-70
2023/05/01 11:12:07;;;;;;;4.13;2.72;;;;;;;20.94;47.06;101088.13;4962597;28;20100;-70
2023/05/01 11:14:51;;;;;;;4.32;2.53;;;;;;;20.93;47.70;101086.53;4985856;28;20043;-71
2023/05/01 11:17:38;;;;;;;3.47;2.15;;;;;;;21.15;48.53;101089.56;4983687;28;20038;-70
2023/05/01 11:20:05;;;;;;;5.93;2.58;;;;;;;21.43;47.38;101087.41;4987551;28;20411;-70
2023/05/01 11:22:39;;;;;;;4.18;2.60;;;;;;;21.50;47.37;101080.28;4986335;28;20089;-70
2023/05/01 11:25:19;;;;;;;4.90;2.67;;;;;;;21.64;45.74;101086.19;5001288;28;20096;-71
2023/05/01 11:27:49;;;;;;;6.25;2.70;;;;;;;21.82;45.31;101082.72;4994579;28;20526;-71
2023/05/01 11:30:15;;;;;;;8.25;2.35;;;;;;;21.76;47.05;101082.56;4982756;28;20664;-71
2023/05/01 11:32:45;;;;;;;4.00;2.50;;;;;;;21.79;46.37;101078.66;4987896;28;20121;-71
2023/05/01 11:35:25;;;;;;;5.18;2.72;;;;;;;21.49;44.41;101081.28;5000937;28;20121;-71